Time;durP1;ratioP1;P1;durP2;ratioP2;P2;SDS_P1;SDS_P2;PMS_P1;PMS_P2;Temp;Humidity;BMP_temperature;BMP_pressure;BME280_temperature;BME280_humidity;BME280_pressure;Samples;Min_cycle;Max_cycle;Signal;HPM_P1;HPM_P2
2022/04/20 00:01:28;;;;;;;5.82;1.63;;;20.00;50.30;;;;;;4295424;33;20193;-69
2022/04/20 00:03:53;;;;;;;9.27;2.10;;;20.00;50.30;;;;;;4295371;33;20386;-69
2022/04/20 00:06:19;;;;;;;5.80;1.52;;;20.00;50.20;;;;;;4294820;33;20157;-69
2022/04/20 00:08:45;;;;;;;5.15;1.70;;;19.90;50.30;;;;;;4295496;33;20083;-68
2022/04/20 00:11:11;;;;;;;6.97;1.55;;;19.90;50.20;;;;;;4295116;33;20077;-69
2022/04/20 00:13:37;;;;;;;4.43;1.15;;;19.90;50.20;;;;;;4294369;33;20074;-69
2022/04/20 00:16:03;;;;;;;2.72;0.90;;;19.90;50.30;;;;;;4295350;33;20080;-69
2022/04/20 00:18:29;;;;;;;5.50;1.40;;;19.90;50.20;;;;;;4295135;33;20215;-69
2022/04/20 00:20:55;;;;;;;4.85;1.50;;;19.90;50.20;;;;;;4295268;33;20069;-69
2022/04/20 00:23:20;;;;;;;5.05;1.30;;;19.90;50.20;;;;;;4295238;33;20160;-69
2022/04/20 00:25:46;;;;;;;4.88;1.35;;;19.80;50.20;;;;;;4295353;33;20077;-69
2022/04/20 00:28:12;;;;;;;3.90;1.40;;;19.80;50.20;;;;;;4294983;33;20073;-69
2022/04/20 00:30:39;;;;;;;3.00;0.93;;;19.80;50.20;;;;;;4295319;33;20093;-69
2022/04/20 00:33:05;;;;;;;5.03;1.30;;;19.80;50.20;;;;;;4294124;33;20131;-69
2022/04/20 00:35:30;;;;;;;5.53;1.35;;;19.80;50.20;;;;;;4294929;33;20091;-69
2022/04/20 00:37:56;;;;;;;4.65;1.33;;;19.80;50.20;;;;;;4294881;33;20133;-69
2022/04/20 00:40:22;;;;;;;7.35;1.30;;;19.80;50.20;;;;;;4295180;33;20081;-69
2022/04/20 00:42:48;;;;;;;4.85;1.13;;;19.80;50.20;;;;;;4294906;33;20170;-69
2022/04/20 00:45:14;;;;;;;4.80;1.25;;;19.80;50.20;;;;;;4295136;33;20297;-69
2022/04/20 00:47:45;;;;;;;3.40;1.30;;;19.80;50.20;;;;;;4294851;33;20133;-69
2022/04/20 00:50:12;;;;;;;5.90;1.42;;;19.70;50.20;;;;;;4295097;33;20286;-69
2022/04/20 00:52:44;;;;;;;2.85;0.90;;;19.80;50.20;;;;;;4294305;33;20143;-68
2022/04/20 00:55:10;;;;;;;5.18;1.52;;;19.70;50.20;;;;;;4296079;33;20251;-68
2022/04/20 00:57:36;;;;;;;5.95;1.30;;;19.70;50.20;;;;;;4297975;33;20073;-69
2022/04/20 01:00:04;;;;;;;3.55;1.30;;;19.70;50.20;;;;;;4297903;33;20081;-69
2022/04/20 01:02:30;;;;;;;3.00;1.08;;;19.70;50.20;;;;;;4296775;33;20180;-68
2022/04/20 01:04:56;;;;;;;6.43;1.05;;;19.70;50.20;;;;;;4297304;33;20132;-70
2022/04/20 01:07:22;;;;;;;3.90;1.02;;;19.70;50.20;;;;;;4297496;33;20100;-69
2022/04/20 01:09:49;;;;;;;4.20;1.30;;;19.70;50.20;;;;;;4296262;33;20514;-69
2022/04/20 01:12:17;;;;;;;2.42;1.08;;;19.70;50.20;;;;;;4297563;33;20505;-69
2022/04/20 01:14:43;;;;;;;3.88;1.20;;;19.70;50.20;;;;;;4297706;33;20089;-69
2022/04/20 01:17:09;;;;;;;4.97;1.27;;;19.60;50.10;;;;;;4297783;33;20097;-69
2022/04/20 01:19:40;;;;;;;3.83;1.02;;;19.60;50.10;;;;;;4297686;33;20101;-69
2022/04/20 01:22:08;;;;;;;5.05;1.10;;;19.60;50.10;;;;;;4297691;33;20084;-69
2022/04/20 01:24:35;;;;;;;4.35;1.10;;;19.60;50.10;;;;;;4284159;33;20505;-69
2022/04/20 01:27:02;;;;;;;2.67;0.98;;;19.60;50.10;;;;;;4297440;33;20124;-69
2022/04/20 01:29:29;;;;;;;4.55;0.95;;;19.60;50.10;;;;;;4296410;33;20221;-69
2022/04/20 01:31:56;;;;;;;3.55;0.85;;;19.60;50.10;;;;;;4297411;33;20089;-69
2022/04/20 01:34:22;;;;;;;4.07;1.10;;;19.60;50.10;;;;;;4297379;33;20428;-68
2022/04/20 01:36:48;;;;;;;3.78;1.20;;;19.60;50.10;;;;;;4297002;33;20523;-69
2022/04/20 01:39:15;;;;;;;4.13;0.95;;;19.50;50.00;;;;;;4297522;33;20136;-69
2022/04/20 01:41:41;;;;;;;3.85;0.68;;;19.60;50.10;;;;;;4297356;33;20109;-69
2022/04/20 01:44:08;;;;;;;4.45;1.00;;;19.50;50.10;;;;;;4284239;33;20085;-69
2022/04/20 01:46:34;;;;;;;3.90;1.27;;;19.50;50.10;;;;;;4297463;33;20529;-69
2022/04/20 01:49:01;;;;;;;3.92;1.08;;;19.50;50.00;;;;;;4296864;33;20078;-69
2022/04/20 01:54:12;;;;;;;1.80;0.82;;;19.50;50.00;;;;;;4297304;33;20497;-69
2022/04/20 01:56:37;;;;;;;3.33;0.88;;;19.50;50.00;;;;;;4295744;33;20109;-69
2022/04/20 01:59:03;;;;;;;3.13;0.80;;;19.50;50.10;;;;;;4297091;33;20213;-69
2022/04/20 02:04:14;;;;;;;2.35;0.93;;;19.50;50.00;;;;;;4297174;33;20215;-69
2022/04/20 02:06:42;;;;;;;3.78;0.90;;;19.40;50.00;;;;;;4295435;33;20093;-69
2022/04/20 02:09:08;;;;;;;3.45;1.02;;;19.40;49.90;;;;;;4296347;33;20164;-69
2022/04/20 02:11:35;;;;;;;2.67;0.60;;;19.40;49.90;;;;;;4297103;33;20092;-69
2022/04/20 02:14:01;;;;;;;2.80;1.10;;;19.40;49.90;;;;;;4295972;33;20125;-69
2022/04/20 02:16:26;;;;;;;2.95;0.82;;;19.40;50.00;;;;;;4283599;33;20073;-69
2022/04/20 02:18:52;;;;;;;2.58;0.80;;;19.40;49.90;;;;;;4295759;33;20140;-69
2022/04/20 02:21:19;;;;;;;1.98;0.98;;;19.40;50.00;;;;;;4295739;33;20081;-68
2022/04/20 02:23:48;;;;;;;2.58;0.80;;;19.40;50.00;;;;;;4296368;33;20121;-69
2022/04/20 02:26:14;;;;;;;2.95;1.00;;;19.40;49.90;;;;;;4296474;33;20096;-69
2022/04/20 02:28:40;;;;;;;4.28;1.10;;;19.40;49.90;;;;;;4294890;33;20129;-69
2022/04/20 02:31:06;;;;;;;3.55;1.00;;;19.40;49.90;;;;;;4296712;33;20543;-69
2022/04/20 02:33:34;;;;;;;2.17;0.80;;;19.40;49.90;;;;;;4295272;33;20077;-69
2022/04/20 02:36:00;;;;;;;2.38;0.85;;;19.40;50.90;;;;;;4295197;33;20094;-69
2022/04/20 02:38:27;;;;;;;1.67;0.80;;;19.30;49.90;;;;;;4295199;33;20237;-69
2022/04/20 02:40:53;;;;;;;3.33;0.95;;;19.30;49.90;;;;;;4296415;33;20492;-69
2022/04/20 02:43:19;;;;;;;4.20;0.90;;;19.30;49.90;;;;;;4271399;33;20207;-69
2022/04/20 02:45:45;;;;;;;2.72;0.80;;;19.30;49.90;;;;;;4296195;33;20520;-69
2022/04/20 02:48:11;;;;;;;2.60;0.88;;;19.30;49.80;;;;;;4296159;33;20434;-69
2022/04/20 02:50:37;;;;;;;1.40;0.95;;;19.30;49.90;;;;;;4296198;33;20078;-69
2022/04/20 02:53:03;;;;;;;1.73;0.90;;;19.30;49.80;;;;;;4294944;33;20304;-69
2022/04/20 02:55:29;;;;;;;2.03;0.70;;;19.30;49.80;;;;;;4295314;33;20116;-69
2022/04/20 02:57:54;;;;;;;2.85;1.10;;;19.30;49.80;;;;;;4295257;33;20080;-69
2022/04/20 03:00:20;;;;;;;1.95;0.80;;;19.30;49.80;;;;;;4296368;33;20184;-69
2022/04/20 03:02:46;;;;;;;3.03;0.98;;;19.30;49.80;;;;;;4294964;33;20074;-69
2022/04/20 03:05:12;;;;;;;1.90;0.77;;;19.30;49.80;;;;;;4295799;33;20089;-69
2022/04/20 03:07:38;;;;;;;1.73;0.73;;;19.20;49.80;;;;;;4295861;33;20114;-69
2022/04/20 03:10:04;;;;;;;2.55;0.85;;;19.20;50.80;;;;;;4295931;33;20097;-69
2022/04/20 03:12:30;;;;;;;3.38;0.70;;;19.20;49.80;;;;;;4295047;33;20077;-69
2022/04/20 03:14:57;;;;;;;1.88;0.60;;;19.20;49.80;;;;;;4295048;33;20081;-69
2022/04/20 03:17:23;;;;;;;2.47;0.85;;;19.20;49.80;;;;;;4293760;33;20097;-69
2022/04/20 03:19:49;;;;;;;3.00;1.02;;;19.20;49.80;;;;;;4294732;33;20077;-69
2022/04/20 03:22:15;;;;;;;1.60;0.93;;;19.20;49.80;;;;;;4293211;33;20096;-69
2022/04/20 03:24:41;;;;;;;1.27;0.60;;;19.20;49.80;;;;;;4295007;33;20230;-69
2022/04/20 03:27:07;;;;;;;2.95;0.85;;;19.20;49.80;;;;;;4293951;33;20073;-69
2022/04/20 03:29:32;;;;;;;1.13;0.70;;;19.20;49.80;;;;;;4294945;33;20080;-69
2022/04/20 03:31:59;;;;;;;1.90;0.88;;;19.10;49.70;;;;;;4295114;33;20499;-69
2022/04/20 03:34:28;;;;;;;1.33;0.70;;;19.20;49.80;;;;;;4293893;33;20108;-69
2022/04/20 03:36:53;;;;;;;2.08;0.80;;;19.10;49.70;;;;;;4294518;33;20424;-69
2022/04/20 03:39:19;;;;;;;1.80;0.80;;;19.10;49.70;;;;;;4294979;33;20420;-69
2022/04/20 03:41:45;;;;;;;2.20;0.75;;;19.10;49.80;;;;;;4294957;33;20077;-69
2022/04/20 03:44:11;;;;;;;1.60;0.73;;;19.10;49.70;;;;;;4294736;33;20133;-69
2022/04/20 03:46:37;;;;;;;1.90;0.80;;;19.10;49.70;;;;;;4294446;33;20097;-69
2022/04/20 03:49:03;;;;;;;1.90;0.70;;;19.10;49.70;;;;;;4294628;33;20604;-69
2022/04/20 03:54:04;;;;;;;1.88;0.65;;;19.10;49.70;;;;;;5003735;27;20083;-69
2022/04/20 03:57:03;;;;;;;2.03;0.60;;;19.10;49.70;;;;;;4317263;32;20060;-69
2022/04/20 03:59:15;;;;;;;2.30;0.90;;;19.10;49.70;;;;;;4341634;32;20138;-69
2022/04/20 04:01:41;;;;;;;2.17;0.60;;;19.10;49.70;;;;;;4335443;32;20401;-69
2022/04/20 04:04:07;;;;;;;1.95;0.80;;;19.10;49.70;;;;;;4353135;32;20124;-69
2022/04/20 04:06:33;;;;;;;1.40;0.80;;;19.00;49.70;;;;;;4340113;32;20226;-69
2022/04/20 04:08:59;;;;;;;1.50;0.82;;;19.00;49.70;;;;;;4354008;32;20068;-69
2022/04/20 04:11:25;;;;;;;1.50;0.70;;;19.10;49.70;;;;;;4351646;32;20136;-69
2022/04/20 04:13:51;;;;;;;1.27;0.70;;;19.00;49.70;;;;;;4325716;33;20069;-69
2022/04/20 04:16:17;;;;;;;1.08;0.65;;;19.00;49.70;;;;;;4325615;33;20599;-69
2022/04/20 04:18:43;;;;;;;1.88;0.60;;;19.00;49.70;;;;;;4338272;33;20089;-69
2022/04/20 04:21:09;;;;;;;1.02;0.60;;;19.00;49.70;;;;;;4338876;33;20069;-69
2022/04/20 04:23:35;;;;;;;1.17;0.60;;;19.00;49.70;;;;;;4339059;33;20104;-69
2022/04/20 04:26:01;;;;;;;1.98;0.77;;;19.00;49.70;;;;;;4339176;33;20069;-69
2022/04/20 04:28:26;;;;;;;0.90;0.50;;;19.00;49.70;;;;;;4338811;33;20076;-69
2022/04/20 04:30:52;;;;;;;1.48;0.50;;;19.00;49.70;;;;;;4341109;33;20160;-69
2022/04/20 04:33:18;;;;;;;3.22;0.70;;;19.00;49.70;;;;;;4342129;33;20560;-69
2022/04/20 04:35:44;;;;;;;1.67;0.70;;;19.00;49.70;;;;;;4328582;33;20107;-69
2022/04/20 04:38:11;;;;;;;0.90;0.38;;;18.90;49.60;;;;;;4342259;33;20080;-69
2022/04/20 04:40:37;;;;;;;1.52;0.50;;;18.90;49.60;;;;;;4342163;33;20088;-69
2022/04/20 04:43:03;;;;;;;1.67;0.70;;;18.90;49.60;;;;;;4342008;33;20161;-69
2022/04/20 04:50:57;;;;;;;2.72;0.90;;;18.90;49.60;;;;;;4341715;33;20160;-69
2022/04/20 04:53:23;;;;;;;2.00;0.77;;;18.90;49.60;;;;;;4341901;33;20080;-68
2022/04/20 04:55:49;;;;;;;1.27;0.50;;;18.90;49.60;;;;;;4341720;33;20490;-68
2022/04/20 04:58:15;;;;;;;1.25;0.65;;;18.90;49.60;;;;;;4341715;33;20096;-69
2022/04/20 05:00:41;;;;;;;1.20;0.57;;;18.90;49.60;;;;;;4341894;33;20104;-69
2022/04/20 05:03:08;;;;;;;1.83;0.68;;;18.90;49.60;;;;;;4341148;33;20545;-69
2022/04/20 05:05:34;;;;;;;0.90;0.50;;;18.90;49.60;;;;;;4340678;33;20428;-69
2022/04/20 05:08:00;;;;;;;1.50;0.63;;;18.80;49.60;;;;;;4341238;33;20103;-69
2022/04/20 05:10:26;;;;;;;1.38;0.60;;;18.80;49.60;;;;;;4328302;33;20475;-69
2022/04/20 05:12:52;;;;;;;0.85;0.60;;;18.80;49.60;;;;;;4344764;33;20082;-68
2022/04/20 05:15:18;;;;;;;1.15;0.60;;;18.80;49.60;;;;;;4341598;33;20112;-68
2022/04/20 05:17:44;;;;;;;1.45;0.60;;;18.80;49.60;;;;;;4328708;33;20231;-68
2022/04/20 05:20:10;;;;;;;2.08;0.65;;;18.80;49.70;;;;;;4340414;33;20099;-69
2022/04/20 05:22:39;;;;;;;1.65;0.50;;;18.80;49.70;;;;;;4340691;33;20567;-69
2022/04/20 05:25:06;;;;;;;1.75;0.80;;;18.80;49.70;;;;;;4327018;33;20061;-69
2022/04/20 05:27:31;;;;;;;0.80;0.60;;;18.80;49.70;;;;;;4340612;33;20214;-69
2022/04/20 05:29:57;;;;;;;1.15;0.50;;;18.80;49.70;;;;;;4340464;33;20191;-69
2022/04/20 05:32:23;;;;;;;1.10;0.60;;;18.70;49.70;;;;;;4340443;33;20075;-69
2022/04/20 05:34:49;;;;;;;0.90;0.45;;;18.80;49.70;;;;;;4327320;33;20521;-69
2022/04/20 05:42:46;;;;;;;1.63;0.43;;;18.70;49.70;;;;;;4341410;33;20084;-68
2022/04/20 05:45:12;;;;;;;1.05;0.50;;;18.70;49.70;;;;;;4340999;33;20390;-68
2022/04/20 05:47:40;;;;;;;1.17;0.60;;;18.70;49.70;;;;;;4340862;33;20123;-69
2022/04/20 05:50:06;;;;;;;1.95;0.65;;;18.70;49.70;;;;;;4326612;33;20095;-69
2022/04/20 05:52:32;;;;;;;1.63;0.73;;;18.70;49.70;;;;;;4340292;33;20131;-69
2022/04/20 05:54:58;;;;;;;0.70;0.40;;;18.70;49.80;;;;;;4339957;33;20392;-69
2022/04/20 05:57:24;;;;;;;1.50;0.60;;;18.70;49.80;;;;;;4340294;33;20084;-68
2022/04/20 05:59:50;;;;;;;1.08;0.55;;;18.70;49.80;;;;;;4340709;33;20104;-68
2022/04/20 06:02:16;;;;;;;1.00;0.50;;;18.70;49.80;;;;;;4340928;33;20210;-68
2022/04/20 06:04:42;;;;;;;0.73;0.50;;;18.70;49.80;;;;;;4327290;33;20061;-68
2022/04/20 06:07:08;;;;;;;1.13;0.63;;;18.70;49.80;;;;;;4340717;33;20253;-69
2022/04/20 06:09:34;;;;;;;1.67;0.60;;;18.70;49.80;;;;;;4340906;33;20069;-69
2022/04/20 06:12:00;;;;;;;1.98;0.60;;;18.70;49.80;;;;;;4340930;33;20093;-69
2022/04/20 06:14:25;;;;;;;1.27;0.65;;;18.80;49.80;;;;;;4340823;33;20506;-69
2022/04/20 06:16:51;;;;;;;1.55;0.57;;;18.80;49.80;;;;;;4340796;33;20076;-69
2022/04/20 06:19:17;;;;;;;1.38;0.88;;;18.70;49.80;;;;;;4340635;33;20084;-69
2022/04/20 06:21:43;;;;;;;1.45;0.93;;;18.80;49.40;;;;;;4340249;33;20104;-69
2022/04/20 06:24:09;;;;;;;3.10;1.25;;;18.80;49.00;;;;;;4340758;33;20124;-69
2022/04/20 06:26:34;;;;;;;2.42;1.20;;;18.80;48.90;;;;;;4340595;33;20064;-68
2022/04/20 06:29:00;;;;;;;3.20;1.30;;;18.80;48.70;;;;;;4340341;33;20495;-69
2022/04/20 06:31:26;;;;;;;2.45;1.30;;;18.80;48.80;;;;;;4340599;33;20057;-70
2022/04/20 06:33:57;;;;;;;3.30;1.30;;;18.80;48.60;;;;;;4340241;33;20506;-69
2022/04/20 06:36:25;;;;;;;5.47;1.38;;;18.90;48.50;;;;;;4340241;33;20499;-69
2022/04/20 06:38:52;;;;;;;4.70;1.52;;;18.90;48.40;;;;;;4340628;33;20226;-70
2022/04/20 06:41:18;;;;;;;2.25;1.30;;;18.90;48.30;;;;;;4340427;33;20191;-69
2022/04/20 06:43:44;;;;;;;1.88;1.30;;;18.90;48.30;;;;;;4340259;33;20103;-69
2022/04/20 06:46:10;;;;;;;2.83;1.40;;;18.90;48.20;;;;;;4340343;33;20490;-69
2022/04/20 06:48:36;;;;;;;2.25;1.50;;;19.00;48.20;;;;;;4340305;33;20368;-69
2022/04/20 06:51:02;;;;;;;2.70;1.30;;;19.00;48.10;;;;;;4326549;33;20084;-70
2022/04/20 06:58:58;;;;;;;1.83;1.20;;;19.10;48.00;;;;;;4340190;33;20112;-69
2022/04/20 07:01:24;;;;;;;2.15;1.50;;;19.10;47.80;;;;;;4314387;33;20495;-69
2022/04/20 07:03:50;;;;;;;2.92;1.30;;;19.10;47.50;;;;;;4326476;33;20494;-69
2022/04/20 07:06:15;;;;;;;3.28;1.45;;;19.10;47.20;;;;;;4340090;33;20096;-69
2022/04/20 07:08:41;;;;;;;2.20;1.48;;;19.10;47.10;;;;;;4340094;33;20072;-69
2022/04/20 07:11:07;;;;;;;2.85;1.25;;;19.10;47.10;;;;;;4340002;33;20096;-69
2022/04/20 07:13:33;;;;;;;2.30;1.35;;;19.10;47.00;;;;;;4339906;33;20053;-69
2022/04/20 07:16:00;;;;;;;2.17;1.30;;;19.10;46.70;;;;;;4339842;33;20407;-69
2022/04/20 07:18:25;;;;;;;2.97;1.35;;;19.10;46.70;;;;;;4339579;33;20218;-69
2022/04/20 07:20:52;;;;;;;2.05;1.10;;;19.20;46.70;;;;;;4339616;33;20123;-69
2022/04/20 07:23:18;;;;;;;4.03;1.30;;;19.20;46.50;;;;;;4339773;33;20253;-69
2022/04/20 07:25:44;;;;;;;3.40;1.10;;;19.20;46.40;;;;;;4325758;33;20866;-69
2022/04/20 07:28:09;;;;;;;2.20;1.52;;;19.20;46.30;;;;;;4337014;33;20087;-69
2022/04/20 07:30:36;;;;;;;1.83;1.08;;;19.20;46.00;;;;;;4338829;33;20108;-69
2022/04/20 07:33:03;;;;;;;2.08;1.10;;;19.20;45.90;;;;;;4338804;33;20171;-69
2022/04/20 07:35:30;;;;;;;1.95;1.20;;;19.20;45.80;;;;;;4353557;32;20092;-69
2022/04/20 07:37:56;;;;;;;1.98;1.02;;;19.30;45.70;;;;;;4352891;32;20341;-69
2022/04/20 07:40:24;;;;;;;1.98;1.20;;;19.30;45.50;;;;;;4347294;32;20185;-69
2022/04/20 07:42:54;;;;;;;2.97;1.40;;;19.30;46.30;;;;;;4339459;33;20089;-69
2022/04/20 07:45:20;;;;;;;2.13;1.00;;;19.30;45.10;;;;;;4339371;33;20100;-69
2022/04/20 07:47:46;;;;;;;2.58;1.10;;;19.30;45.10;;;;;;4338721;33;20119;-69
2022/04/20 07:50:18;;;;;;;2.33;0.93;;;19.30;45.00;;;;;;4338192;33;20397;-69
2022/04/20 07:52:47;;;;;;;3.58;1.10;;;19.30;44.80;;;;;;4338943;33;20080;-69
2022/04/20 07:55:22;;;;;;;2.42;1.40;;;19.40;44.80;;;;;;4339226;33;20103;-69
2022/04/20 07:57:50;;;;;;;2.65;1.20;;;19.40;44.50;;;;;;4339464;33;20120;-68
2022/04/20 08:00:17;;;;;;;2.28;1.20;;;19.40;44.50;;;;;;4339066;33;20175;-69
2022/04/20 08:02:44;;;;;;;2.58;1.40;;;19.40;44.40;;;;;;4338854;33;20068;-68
2022/04/20 08:05:11;;;;;;;4.25;1.10;;;19.40;44.30;;;;;;4338918;33;20421;-69
2022/04/20 08:07:37;;;;;;;3.63;1.50;;;19.40;44.10;;;;;;4339031;33;20080;-69
2022/04/20 08:10:06;;;;;;;2.47;1.20;;;19.50;44.00;;;;;;4339204;33;20088;-69
2022/04/20 08:12:38;;;;;;;1.63;1.17;;;19.50;43.90;;;;;;4339223;33;20171;-69
2022/04/20 08:15:05;;;;;;;3.03;1.20;;;19.50;43.60;;;;;;4339396;33;20087;-69
2022/04/20 08:17:32;;;;;;;3.72;1.20;;;19.60;43.80;;;;;;4338941;33;20204;-69
2022/04/20 08:19:58;;;;;;;1.98;1.13;;;19.60;43.80;;;;;;4338962;33;20098;-69
2022/04/20 08:22:25;;;;;;;3.03;1.20;;;19.70;43.90;;;;;;4338660;33;20112;-69
2022/04/20 08:24:52;;;;;;;2.10;1.05;;;19.70;43.60;;;;;;4338925;33;20525;-69
2022/04/20 08:27:20;;;;;;;1.67;1.15;;;19.70;43.70;;;;;;4339280;33;20143;-69
2022/04/20 08:29:47;;;;;;;2.55;1.20;;;19.80;43.60;;;;;;4339242;33;20083;-69
2022/04/20 08:32:17;;;;;;;3.42;1.38;;;19.80;43.40;;;;;;4339087;33;20069;-69
2022/04/20 08:34:43;;;;;;;2.58;1.17;;;19.80;43.20;;;;;;4338819;33;20084;-69
2022/04/20 08:37:10;;;;;;;5.75;1.40;;;19.90;43.00;;;;;;4338047;33;20076;-69
2022/04/20 08:39:38;;;;;;;2.22;1.25;;;19.90;42.90;;;;;;4338212;33;20109;-69
2022/04/20 08:42:07;;;;;;;3.13;0.90;;;19.90;42.70;;;;;;4338625;33;20077;-69
2022/04/20 08:44:37;;;;;;;3.80;1.42;;;20.00;42.60;;;;;;4325637;33;20060;-69
2022/04/20 08:47:07;;;;;;;2.95;1.13;;;20.00;42.60;;;;;;4339079;33;20147;-69
2022/04/20 08:49:34;;;;;;;1.90;1.38;;;20.00;42.60;;;;;;4339028;33;20542;-68
2022/04/20 08:54:45;;;;;;;1.95;1.05;;;19.90;42.60;;;;;;4338167;33;20256;-69
2022/04/20 08:57:15;;;;;;;3.47;1.17;;;19.90;42.50;;;;;;4338494;33;20409;-69
2022/04/20 08:59:48;;;;;;;1.65;1.20;;;19.90;42.40;;;;;;4338058;33;20084;-69
2022/04/20 09:02:15;;;;;;;2.72;1.20;;;19.90;42.20;;;;;;4338820;33;20080;-69
2022/04/20 09:04:42;;;;;;;2.17;1.23;;;19.90;42.30;;;;;;4338811;33;20426;-69
2022/04/20 09:07:08;;;;;;;1.83;1.20;;;19.90;42.20;;;;;;4338613;33;20095;-69
2022/04/20 09:09:35;;;;;;;2.20;1.10;;;19.90;42.00;;;;;;4338301;33;20092;-69
2022/04/20 09:12:02;;;;;;;1.98;1.10;;;19.90;42.10;;;;;;4338037;33;20107;-69
2022/04/20 09:14:32;;;;;;;2.45;1.02;;;19.90;41.90;;;;;;4337843;33;20080;-68
2022/04/20 09:17:01;;;;;;;1.00;0.90;;;19.90;41.70;;;;;;4339383;33;20521;-69
2022/04/20 09:19:28;;;;;;;2.55;1.05;;;19.90;41.70;;;;;;4339801;33;20494;-68
2022/04/20 09:21:55;;;;;;;1.95;1.13;;;19.90;41.40;;;;;;4339957;33;20072;-68
2022/04/20 09:24:22;;;;;;;1.83;1.10;;;20.00;41.30;;;;;;4339904;33;20090;-68
2022/04/20 09:26:52;;;;;;;2.72;1.13;;;19.90;41.20;;;;;;4314278;33;20179;-69
2022/04/20 09:29:18;;;;;;;2.30;1.30;;;20.00;41.40;;;;;;4340378;33;20120;-69
2022/04/20 09:31:49;;;;;;;2.20;0.95;;;20.00;41.30;;;;;;4341473;33;20128;-64
2022/04/20 09:34:32;;;;;;;1.88;0.90;;;20.00;41.40;;;;;;4341566;33;20539;-68
2022/04/20 09:36:58;;;;;;;4.85;1.10;;;20.00;40.90;;;;;;4340767;33;20243;-68
2022/04/20 09:39:30;;;;;;;1.63;1.08;;;19.90;41.00;;;;;;4340457;33;20210;-68
2022/04/20 09:42:02;;;;;;;5.55;1.15;;;19.90;40.90;;;;;;4340596;33;20410;-68
2022/04/20 09:44:32;;;;;;;3.90;1.08;;;19.90;40.90;;;;;;4340434;33;20127;-68
2022/04/20 09:49:56;;;;;;;4.85;1.20;;;19.90;40.90;;;;;;4341221;33;20107;-68
2022/04/20 09:52:38;;;;;;;3.40;1.23;;;20.00;40.80;;;;;;4340545;33;20103;-68
2022/04/20 09:55:06;;;;;;;1.58;1.00;;;20.00;40.70;;;;;;4340990;33;20084;-68
2022/04/20 09:57:34;;;;;;;2.22;1.10;;;20.00;40.50;;;;;;4341081;33;20136;-68
2022/04/20 10:00:05;;;;;;;3.92;1.17;;;20.00;40.10;;;;;;4327736;33;20100;-69
2022/04/20 10:02:37;;;;;;;3.72;0.90;;;20.00;40.20;;;;;;4340472;33;20171;-67
2022/04/20 10:05:04;;;;;;;3.03;1.33;;;20.00;40.00;;;;;;4338521;33;20072;-68
2022/04/20 10:07:30;;;;;;;2.95;1.08;;;20.00;39.90;;;;;;4340057;33;20084;-68
2022/04/20 10:09:57;;;;;;;5.18;1.20;;;19.90;39.70;;;;;;4340629;33;20077;-68
2022/04/20 10:12:24;;;;;;;5.63;1.45;;;20.00;39.60;;;;;;4340966;33;20092;-68
2022/04/20 10:17:45;;;;;;;3.80;1.27;;;20.00;39.50;;;;;;4340807;33;20128;-69
2022/04/20 10:20:12;;;;;;;2.35;1.02;;;20.00;39.70;;;;;;4340644;33;20518;-69
2022/04/20 10:22:40;;;;;;;2.53;0.93;;;20.00;39.50;;;;;;4326962;33;20083;-69
2022/04/20 10:25:07;;;;;;;3.65;0.90;;;20.00;39.60;;;;;;4340440;33;20230;-69
2022/04/20 10:27:37;;;;;;;2.40;1.00;;;20.00;39.70;;;;;;4339748;33;20097;-69
2022/04/20 10:30:12;;;;;;;2.10;1.05;;;20.00;39.80;;;;;;4340603;33;20095;-69
2022/04/20 10:32:51;;;;;;;2.25;1.00;;;20.00;39.40;;;;;;4328266;33;20088;-69
2022/04/20 10:35:17;;;;;;;12.18;1.30;;;20.00;39.60;;;;;;4340553;33;20474;-69
2022/04/20 10:38:06;;;;;;;4.25;1.10;;;20.00;39.40;;;;;;4340417;33;20069;-69
2022/04/20 10:40:33;;;;;;;1.67;1.10;;;20.00;38.90;;;;;;4327566;33;20602;-69
2022/04/20 10:43:34;;;;;;;2.95;1.30;;;20.00;39.20;;;;;;4340705;33;20219;-68
2022/04/20 10:46:02;;;;;;;8.57;1.27;;;20.00;38.90;;;;;;4320772;32;20213;-68
2022/04/20 10:49:15;;;;;;;2.60;1.08;;;20.00;39.10;;;;;;4353918;32;20122;-68
2022/04/20 10:51:46;;;;;;;4.45;1.20;;;20.00;38.90;;;;;;4320398;32;20175;-69
2022/04/20 10:54:20;;;;;;;3.80;0.95;;;20.00;39.20;;;;;;4354961;32;20107;-69
2022/04/20 10:56:50;;;;;;;3.13;1.20;;;20.00;39.00;;;;;;4355117;32;20084;-69
2022/04/20 10:59:17;;;;;;;4.07;1.23;;;20.00;38.90;;;;;;4346451;32;20098;-68
2022/04/20 11:01:58;;;;;;;2.00;1.20;;;20.00;39.00;;;;;;4339292;33;20176;-68
2022/04/20 11:04:51;;;;;;;5.00;1.30;;;20.00;39.20;;;;;;4338788;33;20072;-69
2022/04/20 11:07:18;;;;;;;1.92;1.02;;;20.00;39.50;;;;;;4349796;32;20060;-68
2022/04/20 11:09:52;;;;;;;5.38;1.35;;;20.00;39.70;;;;;;4353400;32;20092;-68
2022/04/20 11:18:38;;;;;;;3.65;1.05;;;20.00;40.10;;;;;;4354660;32;20091;-69
2022/04/20 11:21:05;;;;;;;4.72;1.30;;;20.00;40.20;;;;;;4343526;32;20215;-69
2022/04/20 11:23:50;;;;;;;4.40;1.10;;;20.00;40.30;;;;;;4337083;33;20092;-69
2022/04/20 11:26:28;;;;;;;5.15;1.45;;;20.00;40.60;;;;;;4338627;33;20414;-69
2022/04/20 11:28:55;;;;;;;5.05;1.10;;;20.00;40.70;;;;;;4338077;33;20080;-69
2022/04/20 11:31:22;;;;;;;7.05;1.55;;;20.00;40.60;;;;;;4339158;33;20088;-69
2022/04/20 11:33:50;;;;;;;6.57;1.20;;;20.00;40.60;;;;;;4339674;33;20425;-68
2022/04/20 11:36:16;;;;;;;4.47;1.30;;;20.00;40.60;;;;;;4339569;33;20095;-69
2022/04/20 11:38:44;;;;;;;1.38;0.90;;;20.00;40.60;;;;;;4339387;33;20107;-69
2022/04/20 11:41:12;;;;;;;1.92;0.95;;;20.00;40.60;;;;;;4339620;33;20263;-69
2022/04/20 11:43:40;;;;;;;1.98;0.98;;;20.00;40.80;;;;;;4339470;33;20322;-68
2022/04/20 11:46:07;;;;;;;5.93;1.20;;;20.00;40.60;;;;;;4339475;33;20084;-68
2022/04/20 11:48:38;;;;;;;9.52;1.40;;;20.00;40.60;;;;;;4326278;33;20072;-68
2022/04/20 11:51:08;;;;;;;6.13;1.30;;;20.00;40.60;;;;;;4338938;33;20411;-69
2022/04/20 11:53:36;;;;;;;6.93;1.23;;;20.00;40.70;;;;;;4340090;33;20112;-68
2022/04/20 11:56:04;;;;;;;11.55;1.25;;;20.00;40.70;;;;;;4338729;33;20127;-68
2022/04/20 11:58:31;;;;;;;5.32;1.23;;;20.00;40.70;;;;;;4338061;33;20106;-76
2022/04/20 12:01:00;;;;;;;6.30;1.30;;;20.00;40.90;;;;;;4338031;33;20116;-68
2022/04/20 12:03:31;;;;;;;4.10;1.30;;;20.00;41.20;;;;;;4337863;33;20163;-67
2022/04/20 12:06:04;;;;;;;4.25;1.50;;;19.90;41.30;;;;;;4337954;33;20258;-67
2022/04/20 12:08:32;;;;;;;4.47;1.10;;;19.90;41.50;;;;;;4336012;33;20077;-68
2022/04/20 12:11:08;;;;;;;5.40;1.60;;;19.90;41.60;;;;;;4341805;33;20060;-68
2022/04/20 12:13:35;;;;;;;5.10;1.10;;;19.90;41.70;;;;;;4339915;33;20091;-67
2022/04/20 12:16:08;;;;;;;4.28;1.23;;;19.90;41.80;;;;;;4353442;33;20076;-67
2022/04/20 12:18:39;;;;;;;6.45;1.17;;;19.90;42.00;;;;;;4353699;33;20081;-68
2022/04/20 12:21:26;;;;;;;6.90;1.33;;;19.80;41.90;;;;;;4353228;33;20108;-68
2022/04/20 12:23:52;;;;;;;2.47;1.50;;;19.80;41.60;;;;;;4352963;33;20413;-68
2022/04/20 12:26:29;;;;;;;6.05;1.38;;;19.90;41.50;;;;;;4352263;33;20080;-68
2022/04/20 12:29:02;;;;;;;10.27;1.23;;;19.90;41.50;;;;;;4348419;33;20207;-68
2022/04/20 12:31:29;;;;;;;4.85;1.30;;;19.90;41.40;;;;;;4351417;33;20521;-68
2022/04/20 12:34:03;;;;;;;2.38;1.20;;;19.90;41.50;;;;;;4351076;33;20096;-68
2022/04/20 12:36:31;;;;;;;5.95;1.55;;;20.00;41.60;;;;;;4352091;33;20128;-68
2022/04/20 12:38:58;;;;;;;5.45;1.50;;;20.00;41.60;;;;;;4351749;33;20080;-68
2022/04/20 12:41:38;;;;;;;3.40;0.98;;;20.00;41.60;;;;;;4352115;33;20494;-68
2022/04/20 12:44:35;;;;;;;5.25;1.05;;;20.00;41.50;;;;;;4349100;33;20131;-68
2022/04/20 12:47:22;;;;;;;3.13;1.25;;;20.00;41.50;;;;;;4351986;33;20106;-67
2022/04/20 12:50:00;;;;;;;2.97;1.10;;;20.00;41.50;;;;;;4351927;32;20099;-68
2022/04/20 12:52:31;;;;;;;6.25;1.10;;;20.00;41.50;;;;;;4352196;33;20123;-68
2022/04/20 12:55:05;;;;;;;4.30;1.10;;;20.10;41.70;;;;;;4354035;32;20625;-68
2022/04/20 13:03:15;;;;;;;2.72;1.00;;;20.10;41.60;;;;;;4354123;32;20904;-68
2022/04/20 13:05:42;;;;;;;2.92;1.00;;;20.10;41.50;;;;;;4351761;32;20076;-68
2022/04/20 13:08:10;;;;;;;4.50;0.85;;;20.10;41.40;;;;;;4355312;32;20092;-68
2022/04/20 13:10:43;;;;;;;5.60;1.00;;;20.10;41.30;;;;;;4341613;32;20103;-68
2022/04/20 13:13:10;;;;;;;;;;;20.00;41.30;;;;;;4355859;32;20124;-67
2022/04/20 13:15:36;;;;;;;7.45;1.08;;;20.10;41.40;;;;;;4355146;32;20083;-67
2022/04/20 13:18:03;;;;;;;3.40;0.70;;;20.00;41.70;;;;;;4355603;32;20214;-67
2022/04/20 13:20:29;;;;;;;4.82;0.90;;;20.00;41.90;;;;;;4356378;32;20409;-67
2022/04/20 13:22:56;;;;;;;3.38;0.90;;;20.00;42.10;;;;;;4355865;32;20064;-66
2022/04/20 13:28:06;;;;;;;3.78;0.80;;;20.00;42.40;;;;;;4356360;32;20183;-68
2022/04/20 13:30:38;;;;;;;2.60;0.80;;;20.00;42.50;;;;;;4356286;32;20417;-67
2022/04/20 13:33:09;;;;;;;3.47;1.00;;;20.00;42.50;;;;;;4342115;32;20080;-68
2022/04/20 13:35:35;;;;;;;6.32;0.80;;;20.00;43.40;;;;;;4351072;32;20323;-68
2022/04/20 13:38:01;;;;;;;1.60;0.80;;;20.10;42.60;;;;;;4353095;32;20080;-68
2022/04/20 13:40:27;;;;;;;2.08;0.93;;;20.00;42.70;;;;;;4354064;32;20422;-68